createdAt,value
2023-07-24T00:05:25.245Z,92
2023-07-24T00:15:25.468Z,92
2023-07-24T00:25:25.612Z,92
2023-07-24T00:35:25.812Z,92
2023-07-24T00:45:26.010Z,94
2023-07-24T00:55:26.211Z,93
2023-07-24T01:05:26.429Z,94
2023-07-24T01:25:26.813Z,94
2023-07-24T01:35:26.997Z,94
2023-07-24T01:45:27.186Z,94
2023-07-24T01:55:27.385Z,95
2023-07-24T02:05:27.581Z,94
2023-07-24T02:25:27.993Z,94
2023-07-24T02:45:28.368Z,94
2023-07-24T02:55:28.550Z,94
2023-07-24T03:05:28.747Z,94
2023-07-24T03:15:29.022Z,93
2023-07-24T03:25:29.141Z,93
2023-07-24T03:35:29.348Z,93
2023-07-24T03:45:29.585Z,93
2023-07-24T03:55:29.756Z,94
2023-07-24T04:15:30.197Z,95
2023-07-24T04:25:30.344Z,95
2023-07-24T04:35:30.511Z,96
2023-07-24T04:45:30.761Z,96
2023-07-24T04:55:30.902Z,96
2023-07-24T05:05:31.109Z,96
2023-07-24T05:15:31.298Z,96
2023-07-24T05:35:31.896Z,96
2023-07-24T05:45:31.882Z,96
2023-07-24T05:55:32.087Z,96
2023-07-24T06:05:32.280Z,96
2023-07-24T06:15:32.504Z,96
2023-07-24T06:25:32.710Z,96
2023-07-24T06:35:32.867Z,96
2023-07-24T06:45:33.118Z,95
2023-07-24T06:55:33.256Z,95
2023-07-24T07:05:33.494Z,95
2023-07-24T07:15:33.727Z,95
2023-07-24T07:25:33.854Z,95
2023-07-24T07:35:34.050Z,95
2023-07-24T07:45:34.228Z,95
2023-07-24T07:55:34.432Z,94
2023-07-24T08:05:34.631Z,93
2023-07-24T08:25:35.015Z,92
2023-07-24T08:35:35.221Z,91
2023-07-24T08:45:35.416Z,90
2023-07-24T08:55:35.617Z,89
2023-07-24T09:05:35.792Z,88
2023-07-24T09:15:36.002Z,87
2023-07-24T09:25:36.179Z,85
2023-07-24T09:35:36.386Z,86
2023-07-24T09:45:37.424Z,86
2023-07-24T09:55:36.786Z,84
2023-07-24T10:05:36.962Z,84
2023-07-24T10:15:37.159Z,84
2023-07-24T10:25:37.387Z,84
2023-07-24T10:35:37.559Z,84
2023-07-24T10:45:37.758Z,84
2023-07-24T10:55:37.941Z,81
2023-07-24T11:15:38.355Z,82
2023-07-24T11:25:38.532Z,83
2023-07-24T11:35:38.719Z,84
2023-07-24T11:45:38.911Z,86
2023-07-24T11:55:39.109Z,90
2023-07-24T12:05:39.314Z,91
2023-07-24T12:15:39.498Z,93
2023-07-24T12:25:39.699Z,92
2023-07-24T12:35:39.900Z,93
2023-07-24T12:45:40.104Z,92
2023-07-24T12:55:40.302Z,92
2023-07-24T13:05:40.496Z,92
2023-07-24T13:25:40.879Z,89
2023-07-24T13:35:41.080Z,90
2023-07-24T13:45:41.263Z,88
2023-07-24T13:55:41.461Z,85
2023-07-24T14:05:41.646Z,84
2023-07-24T14:15:41.857Z,84
2023-07-24T14:25:42.043Z,81
2023-07-24T14:35:42.228Z,78
2023-07-24T14:45:42.432Z,78
2023-07-24T14:55:42.623Z,78
2023-07-24T15:15:43.023Z,74
2023-07-24T15:35:43.416Z,79
2023-07-24T15:45:43.625Z,80
2023-07-24T15:55:43.812Z,82
2023-07-24T16:05:43.988Z,83
2023-07-24T16:25:44.372Z,82
2023-07-24T16:35:44.619Z,82
2023-07-24T16:46:03.294Z,81
2023-07-24T16:55:44.959Z,83
2023-07-24T17:05:45.150Z,83
2023-07-24T17:15:45.359Z,82
2023-07-24T17:25:45.560Z,82
2023-07-24T17:35:45.744Z,83
2023-07-24T17:45:45.933Z,86
2023-07-24T17:55:46.134Z,87
2023-07-24T18:05:46.337Z,88
2023-07-24T18:15:46.568Z,89
2023-07-24T18:25:46.719Z,90
2023-07-24T18:35:46.922Z,92
2023-07-24T18:45:47.134Z,92
2023-07-24T18:55:47.350Z,92
2023-07-24T19:05:47.621Z,93
2023-07-24T19:15:47.714Z,93
2023-07-24T19:25:47.893Z,93
2023-07-24T19:35:48.115Z,93
2023-07-24T19:55:48.501Z,93
2023-07-24T20:15:48.937Z,93
2023-07-24T20:25:49.075Z,93
2023-07-24T20:35:49.281Z,93
2023-07-24T20:45:49.500Z,93
2023-07-24T20:55:49.669Z,93
2023-07-24T21:05:49.970Z,93
2023-07-24T21:15:50.094Z,93
2023-07-24T21:25:50.274Z,93
2023-07-24T21:35:50.467Z,93
2023-07-24T21:45:50.665Z,93
2023-07-24T21:55:50.916Z,93
2023-07-24T22:05:51.116Z,92
2023-07-24T22:15:51.274Z,92
2023-07-24T22:25:51.493Z,93
2023-07-24T22:35:51.669Z,93
2023-07-24T22:45:51.868Z,93
2023-07-24T22:55:52.072Z,93
2023-07-24T23:05:52.242Z,93
2023-07-24T23:15:52.445Z,93
2023-07-24T23:25:52.633Z,93
2023-07-24T23:35:52.853Z,93
2023-07-24T23:45:53.066Z,93
2023-07-24T23:55:53.279Z,93
